Main page
METAR-TAF:

METAR-TAF

Airports :

Porto Alegre, Rio Grande do Sul, Brazil

Salgado Filho International Airport

latitude: 30-00S, longitude: 051-11W, elevation: 3 m

Current weather observation

The report was made 58 minutes ago, at 04:00 UTC
Wind 2 kt from variable directions
Temperature 18°C
Humidity 94%
Pressure 1017 hPa
Visibility 10 km or more
no clouds below 1500 m and no cumulonimbus

METAR: SBPA 240400Z VRB02KT CAVOK 18/17 Q1017

Time: 01:58 (04:58 UTC)

Forecast

The report was made 6 hours and 28 minutes ago, at 22:30 UTC
Forecast valid from 24 at 00 UTC to 24 at 24 UTC
Wind 8 kt from the East/Southeast
Visibility 10 km or more
no clouds below 1500 m and no cumulonimbus
Probability 30%
from 24 at 08 UTC to 24 at 11 UTC
Visibility: 5000 m
mist

TAF: SBPA 232230Z 2400/2424 11008KT CAVOK TN16/2409Z TX30/2418Z PROB30 2408/2411 5000 BR NSC RMK PER

Weather observations and forecasts of more than 4000 airports (METAR and TAF reports).

The available stations are represented by yellow and red dots on the map.

Hover mouse over dot to see the name of the station.

Then click to see weather observations and forecasts.

To change the map : click on the green buttons with a black cross to zoom in, on the green button with a dash to zoom out, or on the green arrows for adjacent maps.


METAR-TAF: